Cruzeiro Do Canal — CSVG — position and weather

sailwx.info

Track history (hours):
 
Tides and Currents Weather Stations Pressure Air Temp Water Temp Dewpoint Dewpoint Depression Visibility Wind Speed Wind Dir Waves Ship Positions

Cruzeiro Do Canal

Last reported at 2016-Nov-26 20:10 UTC. Time now 2016-Dec-04 12:11 UTC.
Position N 38°32' W 028°37'.

Length 32 m; draft 2.3 m.

Type: Passenger vessel. MMSI: 204701250.

Date/timePositionNaut miles runAvg speedWind from/ knotsBaromVisibWave heightAir tempDewpointWater temp
2016-Nov-26 20:10N 38°32' W 028°37'4 7.0
2016-Nov-26 19:33N 38°32' W 028°32'1111.1
2016-Nov-26 18:33N 38°38' W 028°20'7 6.6
2016-Nov-26 17:33N 38°41' W 028°12'5 4.5
2016-Nov-26 16:33N 38°37' W 028°15'6 5.9
2016-Nov-26 15:33N 38°32' W 028°19'0 0.0
2016-Nov-26 14:33N 38°32' W 028°19'3 2.7
2016-Nov-26 13:33N 38°34' W 028°18'7 6.6
2016-Nov-26 12:33N 38°40' W 028°13'1212.2
2016-Nov-26 11:33N 38°35' W 028°28'8 8.0
2016-Nov-26 10:33N 38°32' W 028°37'1 0.1
2016-Nov-25 20:33N 38°32' W 028°36'1 1.0
2016-Nov-25 19:33N 38°32' W 028°37'2 2.1
2016-Nov-25 18:33N 38°32' W 028°35'2 0.5
2016-Nov-25 14:34N 38°32' W 028°37'8 6.1
2016-Nov-25 13:19N 38°34' W 028°28'7 9.2
2016-Nov-25 12:33N 38°32' W 028°19'1010.4
2016-Nov-25 11:33N 38°41' W 028°12'10 9.7
2016-Nov-25 10:33N 38°32' W 028°19'8 8.3
2016-Nov-25 09:34N 38°34' W 028°29'7 0.3
2016-Nov-24 13:33N 38°32' W 028°37'8 7.8
2016-Nov-24 12:34N 38°35' W 028°28'1212.0
2016-Nov-24 11:33N 38°40' W 028°14'6 5.8
2016-Nov-24 10:33N 38°37' W 028°20'1010.2
2016-Nov-24 09:33N 38°32' W 028°32'4 0.3
2016-Nov-23 19:33N 38°32' W 028°37'3 3.2
2016-Nov-23 18:33N 38°32' W 028°33'3 3.2
2016-Nov-23 17:33N 38°32' W 028°37'0 0.0
2016-Nov-23 16:33N 38°32' W 028°37'0 0.0
2016-Nov-23 15:33N 38°32' W 028°37'0 0.0
2016-Nov-23 14:33N 38°32' W 028°37'0 0.0
2016-Nov-23 13:33N 38°32' W 028°37'8 7.8
2016-Nov-23 12:34N 38°35' W 028°28'1212.3
2016-Nov-23 11:33N 38°40' W 028°13'6 6.3
2016-Nov-23 10:33N 38°37' W 028°21'1010.2
2016-Nov-23 09:33N 38°32' W 028°32'4 0.2
2016-Nov-22 13:33N 38°32' W 028°37'13 4.4
2016-Nov-22 10:34N 38°37' W 028°21'9 9.4
2016-Nov-22 09:33N 38°32' W 028°32'4 0.3
2016-Nov-21 17:33N 38°32' W 028°37'0 0.0
2016-Nov-21 14:34N 38°32' W 028°37'2 2.2
2016-Nov-21 13:33N 38°32' W 028°34'8 8.4
2016-Nov-21 12:33N 38°38' W 028°26'1111.4
2016-Nov-21 11:33N 38°41' W 028°12'10 9.8
2016-Nov-21 10:33N 38°32' W 028°19'  
Track history (hours):
 
Tides and Currents Weather Stations Pressure Air Temp Water Temp Dewpoint Dewpoint Depression Visibility Wind Speed Wind Dir Waves Ship Positions

Cruzeiro Do Canal

Last reported at 2016-Nov-26 20:10 UTC. Time now 2016-Dec-04 12:11 UTC.
Position N 38°32' W 028°37'.

Length 32 m; draft 2.3 m.

Type: Passenger vessel. MMSI: 204701250.

Date/timePositionNaut miles runAvg speedWind from/ knotsBaromVisibWave heightAir tempDewpointWater temp
2016-Nov-26 20:10N 38°32' W 028°37'4 7.0
2016-Nov-26 19:33N 38°32' W 028°32'1111.1
2016-Nov-26 18:33N 38°38' W 028°20'7 6.6
2016-Nov-26 17:33N 38°41' W 028°12'5 4.5
2016-Nov-26 16:33N 38°37' W 028°15'6 5.9
2016-Nov-26 15:33N 38°32' W 028°19'0 0.0
2016-Nov-26 14:33N 38°32' W 028°19'3 2.7
2016-Nov-26 13:33N 38°34' W 028°18'7 6.6
2016-Nov-26 12:33N 38°40' W 028°13'1212.2
2016-Nov-26 11:33N 38°35' W 028°28'8 8.0
2016-Nov-26 10:33N 38°32' W 028°37'1 0.1
2016-Nov-25 20:33N 38°32' W 028°36'1 1.0
2016-Nov-25 19:33N 38°32' W 028°37'2 2.1
2016-Nov-25 18:33N 38°32' W 028°35'2 0.5
2016-Nov-25 14:34N 38°32' W 028°37'8 6.1
2016-Nov-25 13:19N 38°34' W 028°28'7 9.2
2016-Nov-25 12:33N 38°32' W 028°19'1010.4
2016-Nov-25 11:33N 38°41' W 028°12'10 9.7
2016-Nov-25 10:33N 38°32' W 028°19'8 8.3
2016-Nov-25 09:34N 38°34' W 028°29'7 0.3
2016-Nov-24 13:33N 38°32' W 028°37'8 7.8
2016-Nov-24 12:34N 38°35' W 028°28'1212.0
2016-Nov-24 11:33N 38°40' W 028°14'6 5.8
2016-Nov-24 10:33N 38°37' W 028°20'1010.2
2016-Nov-24 09:33N 38°32' W 028°32'4 0.3
2016-Nov-23 19:33N 38°32' W 028°37'3 3.2
2016-Nov-23 18:33N 38°32' W 028°33'3 3.2
2016-Nov-23 17:33N 38°32' W 028°37'0 0.0
2016-Nov-23 16:33N 38°32' W 028°37'0 0.0
2016-Nov-23 15:33N 38°32' W 028°37'0 0.0
2016-Nov-23 14:33N 38°32' W 028°37'0 0.0
2016-Nov-23 13:33N 38°32' W 028°37'8 7.8
2016-Nov-23 12:34N 38°35' W 028°28'1212.3
2016-Nov-23 11:33N 38°40' W 028°13'6 6.3
2016-Nov-23 10:33N 38°37' W 028°21'1010.2
2016-Nov-23 09:33N 38°32' W 028°32'4 0.2
2016-Nov-22 13:33N 38°32' W 028°37'13 4.4
2016-Nov-22 10:34N 38°37' W 028°21'9 9.4
2016-Nov-22 09:33N 38°32' W 028°32'4 0.3
2016-Nov-21 17:33N 38°32' W 028°37'0 0.0
2016-Nov-21 14:34N 38°32' W 028°37'2 2.2
2016-Nov-21 13:33N 38°32' W 028°34'8 8.4
2016-Nov-21 12:33N 38°38' W 028°26'1111.4
2016-Nov-21 11:33N 38°41' W 028°12'10 9.8
2016-Nov-21 10:33N 38°32' W 028°19'  

Dump ship's entire track history